createdAt,value
2022-10-04T00:00:37.039Z,1.27
2022-10-04T00:03:10.630Z,1.40
2022-10-04T00:05:38.694Z,1.50
2022-10-04T00:08:25.553Z,1.50
2022-10-04T00:11:02.282Z,1.23
2022-10-04T00:13:29.746Z,1.30
2022-10-04T00:15:57.346Z,1.73
2022-10-04T00:18:51.592Z,1.30
2022-10-04T00:21:19.172Z,1.43
2022-10-04T00:23:46.965Z,1.47
2022-10-04T00:26:23.569Z,1.70
2022-10-04T00:28:50.930Z,1.40
2022-10-04T00:31:18.314Z,1.40
2022-10-04T00:33:50.121Z,1.57
2022-10-04T00:36:37.703Z,1.37
2022-10-04T00:39:05.211Z,1.73
2022-10-04T00:41:47.847Z,1.40
2022-10-04T00:44:20.210Z,1.77
2022-10-04T00:46:49.140Z,1.37
2022-10-04T00:49:18.063Z,1.30
2022-10-04T00:51:52.442Z,1.40
2022-10-04T00:54:28.077Z,1.50
2022-10-04T00:57:14.345Z,1.57
2022-10-04T00:59:47.152Z,1.30
2022-10-04T01:02:24.252Z,1.37
2022-10-04T01:05:03.206Z,1.37
2022-10-04T01:07:50.775Z,1.30
2022-10-04T01:10:29.825Z,1.37
2022-10-04T01:12:57.112Z,1.50
2022-10-04T01:15:43.271Z,1.77
2022-10-04T01:18:10.779Z,1.20
2022-10-04T01:21:01.086Z,0.93
2022-10-04T01:23:48.032Z,2.00
2022-10-04T01:26:30.495Z,1.30
2022-10-04T01:28:59.477Z,1.23
2022-10-04T01:31:27.541Z,1.60
2022-10-04T01:33:55.385Z,1.60
2022-10-04T01:36:22.825Z,1.37
2022-10-04T01:38:50.910Z,1.40
2022-10-04T01:41:21.165Z,1.40
2022-10-04T01:43:51.150Z,1.53
2022-10-04T01:46:21.710Z,1.50
2022-10-04T01:48:49.101Z,1.43
2022-10-04T01:51:22.085Z,1.70
2022-10-04T01:53:55.694Z,1.70
2022-10-04T01:56:25.537Z,1.83
2022-10-04T01:58:55.026Z,1.43
2022-10-04T02:01:31.699Z,1.50
2022-10-04T02:04:05.258Z,1.73
2022-10-04T02:06:38.097Z,1.73
2022-10-04T02:09:13.325Z,1.43
2022-10-04T02:11:41.975Z,2.40
2022-10-04T02:14:16.881Z,1.40
2022-10-04T02:16:46.455Z,1.50
2022-10-04T02:19:14.351Z,1.87
2022-10-04T02:21:42.737Z,1.50
2022-10-04T02:24:12.137Z,2.37
2022-10-04T02:26:39.683Z,1.60
2022-10-04T02:29:07.121Z,1.73
2022-10-04T02:31:53.157Z,2.37
2022-10-04T02:34:20.549Z,1.60
2022-10-04T02:36:52.509Z,1.50
2022-10-04T02:39:25.357Z,1.37
2022-10-04T02:41:55.013Z,1.50
2022-10-04T02:44:25.099Z,1.60
2022-10-04T02:47:10.725Z,1.37
2022-10-04T02:49:41.887Z,1.20
2022-10-04T02:52:09.202Z,1.43
2022-10-04T02:54:39.245Z,2.10
2022-10-04T02:57:06.649Z,1.57
2022-10-04T02:59:35.550Z,2.00
2022-10-04T03:02:03.314Z,1.70
2022-10-04T03:04:39.805Z,1.37
2022-10-04T03:07:08.421Z,1.30
2022-10-04T03:09:36.429Z,1.80
2022-10-04T03:12:04.891Z,1.67
2022-10-04T03:14:32.406Z,1.50
2022-10-04T03:17:01.752Z,1.73
2022-10-04T03:19:30.438Z,1.63
2022-10-04T03:21:59.778Z,1.83
2022-10-04T03:24:39.553Z,2.03
2022-10-04T03:27:08.194Z,1.90
2022-10-04T03:29:36.086Z,1.73
2022-10-04T03:32:05.022Z,1.80
2022-10-04T03:34:36.893Z,1.70
2022-10-04T03:37:06.894Z,1.50
2022-10-04T03:39:42.090Z,1.47
2022-10-04T03:42:16.940Z,1.80
2022-10-04T03:44:46.081Z,1.73
2022-10-04T03:47:15.426Z,1.57
2022-10-04T03:49:47.387Z,1.60
2022-10-04T03:52:26.388Z,1.77
2022-10-04T03:54:55.385Z,2.10
2022-10-04T03:57:23.778Z,1.70
2022-10-04T03:59:52.767Z,2.13
2022-10-04T04:02:26.272Z,2.00
2022-10-04T04:05:13.848Z,2.10
2022-10-04T04:07:47.213Z,2.53
2022-10-04T04:10:28.690Z,2.10
2022-10-04T04:12:55.936Z,2.30
2022-10-04T04:15:23.423Z,1.80
2022-10-04T04:17:53.201Z,1.60
2022-10-04T04:20:20.483Z,1.57
2022-10-04T04:22:53.211Z,1.93
2022-10-04T04:25:23.588Z,2.10
2022-10-04T04:27:52.382Z,1.90
2022-10-04T04:30:20.094Z,1.83
2022-10-04T04:32:50.817Z,1.80
2022-10-04T04:35:23.950Z,1.63
2022-10-04T04:38:13.463Z,1.90
2022-10-04T04:40:40.884Z,2.10
2022-10-04T04:43:11.566Z,2.40
2022-10-04T04:45:39.014Z,1.83
2022-10-04T04:48:07.179Z,1.80
2022-10-04T04:50:36.600Z,2.80
2022-10-04T04:53:06.064Z,2.43
2022-10-04T04:55:50.326Z,1.83
2022-10-04T04:58:24.138Z,2.33
2022-10-04T05:00:59.693Z,2.57
2022-10-04T05:03:29.938Z,2.30
2022-10-04T05:06:00.857Z,2.33
2022-10-04T05:08:29.504Z,2.43
2022-10-04T05:10:59.599Z,2.57
2022-10-04T05:13:31.781Z,2.30
2022-10-04T05:15:59.806Z,3.00
2022-10-04T05:18:29.238Z,2.27
2022-10-04T05:20:58.271Z,2.67
2022-10-04T05:23:25.825Z,2.70
2022-10-04T05:25:53.317Z,2.67
2022-10-04T05:28:20.683Z,2.87
2022-10-04T05:30:56.948Z,2.40
2022-10-04T05:33:39.206Z,2.73
2022-10-04T05:36:13.721Z,2.57
2022-10-04T05:38:46.649Z,2.60
2022-10-04T05:41:39.348Z,2.23
2022-10-04T05:44:28.484Z,2.70
2022-10-04T05:46:56.984Z,2.47
2022-10-04T05:49:25.974Z,2.47
2022-10-04T05:51:59.311Z,2.27
2022-10-04T05:54:27.827Z,2.50
2022-10-04T05:57:02.087Z,2.77
2022-10-04T05:59:41.653Z,2.40
2022-10-04T06:02:12.154Z,3.20
2022-10-04T06:04:58.277Z,2.70
2022-10-04T06:07:40.674Z,2.37
2022-10-04T06:10:16.551Z,2.80
2022-10-04T06:12:50.481Z,2.90
2022-10-04T06:15:17.879Z,3.23
2022-10-04T06:17:49.710Z,2.67
2022-10-04T06:20:33.005Z,3.20
2022-10-04T06:23:01.511Z,2.23
2022-10-04T06:25:31.463Z,2.80
2022-10-04T06:28:06.956Z,3.23
2022-10-04T06:30:42.375Z,2.00
2022-10-04T06:33:10.378Z,2.43
2022-10-04T06:35:54.886Z,2.50
2022-10-04T06:38:22.242Z,2.27
2022-10-04T06:41:07.943Z,2.30
2022-10-04T06:43:54.533Z,2.93
2022-10-04T06:46:32.268Z,2.73
2022-10-04T06:49:18.224Z,2.33
2022-10-04T06:51:51.229Z,2.40
2022-10-04T06:54:18.778Z,2.60
2022-10-04T06:57:03.911Z,3.07
2022-10-04T06:59:44.982Z,2.67
2022-10-04T07:02:32.584Z,2.93
2022-10-04T07:05:08.562Z,2.63
2022-10-04T07:07:37.971Z,3.00
2022-10-04T07:10:23.891Z,2.60
2022-10-04T07:12:57.251Z,2.53
2022-10-04T07:15:25.843Z,3.30
2022-10-04T07:17:54.306Z,2.27
2022-10-04T07:20:27.893Z,2.57
2022-10-04T07:22:59.566Z,2.33
2022-10-04T07:25:30.519Z,2.83
2022-10-04T07:28:24.584Z,2.60
2022-10-04T07:31:12.284Z,2.83
2022-10-04T07:33:48.244Z,2.27
2022-10-04T07:36:24.194Z,2.33
2022-10-04T07:38:54.369Z,2.27
2022-10-04T07:41:26.209Z,2.20
2022-10-04T07:44:02.303Z,2.30
2022-10-04T07:46:47.582Z,2.73
2022-10-04T07:49:19.133Z,2.93
2022-10-04T07:52:04.638Z,2.47
2022-10-04T07:54:40.256Z,2.93
2022-10-04T07:57:12.509Z,2.60
2022-10-04T07:59:50.463Z,2.97
2022-10-04T08:02:24.037Z,3.00
2022-10-04T08:05:01.629Z,2.97
2022-10-04T08:07:37.989Z,2.73
2022-10-04T08:10:13.271Z,2.77
2022-10-04T08:12:55.798Z,2.67
2022-10-04T08:15:39.677Z,2.40
2022-10-04T08:18:16.092Z,3.00
2022-10-04T08:20:55.298Z,2.87
2022-10-04T08:23:36.548Z,2.83
2022-10-04T08:26:22.800Z,2.80
2022-10-04T08:29:17.626Z,3.17
2022-10-04T08:31:44.905Z,2.40
2022-10-04T08:34:12.130Z,2.60
2022-10-04T08:36:43.171Z,3.33
2022-10-04T08:39:40.174Z,2.47
2022-10-04T08:42:20.526Z,2.83
2022-10-04T08:44:53.548Z,3.40
2022-10-04T08:47:34.104Z,2.97
2022-10-04T08:50:20.138Z,2.80
2022-10-04T08:52:53.283Z,2.63
2022-10-04T08:55:34.979Z,2.80
2022-10-04T08:58:16.781Z,2.57
2022-10-04T09:00:56.856Z,2.30
2022-10-04T09:03:44.714Z,3.13
2022-10-04T09:06:18.130Z,2.73
2022-10-04T09:09:09.365Z,3.23
2022-10-04T09:11:55.226Z,2.70
2022-10-04T09:14:23.972Z,2.70
2022-10-04T09:17:09.844Z,2.93
2022-10-04T09:20:09.061Z,3.17
2022-10-04T09:22:48.179Z,2.83
2022-10-04T09:25:27.443Z,2.97
2022-10-04T09:28:20.665Z,2.50
2022-10-04T09:31:02.152Z,2.80
2022-10-04T09:33:41.186Z,2.77
2022-10-04T09:36:28.055Z,2.97
2022-10-04T09:39:17.976Z,2.60
2022-10-04T09:41:51.313Z,2.90
2022-10-04T09:44:30.554Z,2.93
2022-10-04T09:47:17.320Z,2.93
2022-10-04T09:50:09.324Z,2.90
2022-10-04T09:52:40.055Z,3.00
2022-10-04T09:55:27.325Z,2.47
2022-10-04T09:57:54.554Z,2.57
2022-10-04T10:00:25.248Z,2.80
2022-10-04T10:03:15.641Z,3.07
2022-10-04T10:06:03.282Z,3.10
2022-10-04T10:08:53.212Z,3.00
2022-10-04T10:11:51.280Z,2.60
2022-10-04T10:14:29.979Z,2.67
2022-10-04T10:17:03.337Z,2.57
2022-10-04T10:19:49.074Z,2.37
2022-10-04T10:22:28.900Z,2.60
2022-10-04T10:25:08.592Z,2.30
2022-10-04T10:27:36.261Z,2.70
2022-10-04T10:30:12.827Z,2.80
2022-10-04T10:32:46.131Z,2.97
2022-10-04T10:35:13.427Z,2.27
2022-10-04T10:37:50.009Z,2.60
2022-10-04T10:40:23.493Z,2.53
2022-10-04T10:42:57.282Z,2.33
2022-10-04T10:45:30.415Z,1.97
2022-10-04T10:48:06.345Z,2.37
2022-10-04T10:50:33.621Z,2.27
2022-10-04T10:53:20.207Z,3.17
2022-10-04T10:56:16.484Z,2.57
2022-10-04T10:59:02.402Z,2.37
2022-10-04T11:01:48.542Z,2.43
2022-10-04T11:04:19.020Z,2.73
2022-10-04T11:07:14.226Z,2.37
2022-10-04T11:09:44.622Z,2.33
2022-10-04T11:12:19.293Z,2.97
2022-10-04T11:15:03.081Z,3.00
2022-10-04T11:17:30.901Z,2.67
2022-10-04T11:19:58.130Z,2.67
2022-10-04T11:22:49.347Z,2.50
2022-10-04T11:25:36.080Z,2.20
2022-10-04T11:28:03.491Z,2.40
2022-10-04T11:30:40.432Z,2.80
2022-10-04T11:33:20.257Z,2.63
2022-10-04T11:36:01.943Z,2.50
2022-10-04T11:38:32.030Z,2.87
2022-10-04T11:41:00.033Z,2.97
2022-10-04T11:43:40.146Z,2.77
2022-10-04T11:46:10.665Z,2.57
2022-10-04T11:48:59.241Z,2.57
2022-10-04T11:51:47.816Z,2.63
2022-10-04T11:54:28.037Z,2.20
2022-10-04T11:57:10.331Z,2.37
2022-10-04T12:00:00.942Z,2.50
2022-10-04T12:02:47.458Z,2.00
2022-10-04T12:05:21.468Z,2.17
2022-10-04T12:07:50.454Z,2.03
2022-10-04T12:10:23.934Z,2.40
2022-10-04T12:12:53.983Z,2.37
2022-10-04T12:15:41.833Z,2.10
2022-10-04T12:18:30.467Z,2.70
2022-10-04T12:21:10.350Z,2.23
2022-10-04T12:23:51.601Z,2.20
2022-10-04T12:26:37.587Z,2.50
2022-10-04T12:29:24.218Z,1.93
2022-10-04T12:31:54.520Z,2.17
2022-10-04T12:34:38.022Z,2.13
2022-10-04T12:37:13.773Z,2.20
2022-10-04T12:40:08.602Z,1.90
2022-10-04T12:42:52.152Z,2.20
2022-10-04T12:45:30.313Z,2.10
2022-10-04T12:48:06.825Z,2.20
2022-10-04T12:50:37.222Z,2.03
2022-10-04T12:53:14.519Z,2.90
2022-10-04T12:55:44.676Z,2.57
2022-10-04T12:58:21.302Z,2.77
2022-10-04T13:00:49.376Z,2.43
2022-10-04T13:03:30.186Z,2.30
2022-10-04T13:06:05.370Z,2.57
2022-10-04T13:08:51.444Z,2.40
2022-10-04T13:11:42.433Z,2.40
2022-10-04T13:14:25.858Z,2.20
2022-10-04T13:17:35.211Z,2.33
2022-10-04T13:20:18.217Z,2.53
2022-10-04T13:22:57.895Z,2.20
2022-10-04T13:25:28.571Z,2.40
2022-10-04T13:28:05.669Z,3.10
2022-10-04T13:30:32.994Z,2.63
2022-10-04T13:33:00.290Z,2.37
2022-10-04T13:35:50.226Z,2.87
2022-10-04T13:38:20.528Z,1.93
2022-10-04T13:40:47.760Z,2.53
2022-10-04T13:43:33.611Z,2.70
2022-10-04T13:46:24.042Z,2.37
2022-10-04T13:49:01.308Z,3.00
2022-10-04T13:51:41.237Z,2.90
2022-10-04T13:54:32.753Z,2.70
2022-10-04T13:57:18.990Z,2.50
2022-10-04T14:00:04.946Z,2.70
2022-10-04T14:02:47.612Z,2.90
2022-10-04T14:05:27.722Z,2.53
2022-10-04T14:08:06.097Z,2.80
2022-10-04T14:10:51.898Z,3.10
2022-10-04T14:13:31.249Z,2.50
2022-10-04T14:16:17.236Z,2.53
2022-10-04T14:19:03.816Z,2.67
2022-10-04T14:22:00.076Z,2.57
2022-10-04T14:24:36.629Z,2.40
2022-10-04T14:27:03.902Z,2.37
2022-10-04T14:29:37.235Z,2.57
2022-10-04T14:32:20.410Z,2.30
2022-10-04T14:34:47.857Z,2.40
2022-10-04T14:37:15.112Z,2.30
2022-10-04T14:39:55.079Z,2.33
2022-10-04T14:42:40.558Z,2.27
2022-10-04T14:45:26.402Z,2.23
2022-10-04T14:48:13.240Z,2.10
2022-10-04T14:51:04.545Z,2.30
2022-10-04T14:53:37.843Z,2.40
2022-10-04T14:56:26.167Z,2.30
2022-10-04T14:59:06.511Z,2.13
2022-10-04T15:01:34.088Z,2.07
2022-10-04T15:04:14.681Z,2.30
2022-10-04T15:06:48.577Z,2.07
2022-10-04T15:09:31.055Z,2.00
2022-10-04T15:12:27.223Z,1.90
2022-10-04T15:14:58.834Z,2.10
2022-10-04T15:17:33.484Z,2.23
2022-10-04T15:20:04.173Z,2.43
2022-10-04T15:22:41.386Z,2.20
2022-10-04T15:25:28.652Z,2.43
2022-10-04T15:27:57.903Z,2.40
2022-10-04T15:30:51.589Z,1.97
2022-10-04T15:33:25.621Z,2.10
2022-10-04T15:36:10.868Z,2.53
2022-10-04T15:39:05.041Z,2.20
2022-10-04T15:41:32.345Z,2.30
2022-10-04T15:44:11.823Z,2.00
2022-10-04T15:46:45.402Z,2.43
2022-10-04T15:49:18.107Z,2.60
2022-10-04T15:51:51.065Z,2.30
2022-10-04T15:54:37.013Z,2.27
2022-10-04T15:57:19.380Z,2.50
2022-10-04T15:59:55.425Z,2.30
2022-10-04T16:02:31.181Z,2.63
2022-10-04T16:04:58.540Z,2.10
2022-10-04T16:07:40.320Z,2.60
2022-10-04T16:10:26.629Z,2.40
2022-10-04T16:13:14.187Z,2.10
2022-10-04T16:15:45.161Z,2.10
2022-10-04T16:18:21.699Z,2.70
2022-10-04T16:20:52.307Z,2.43
2022-10-04T16:23:31.727Z,2.10
2022-10-04T16:26:02.051Z,2.80
2022-10-04T16:28:29.589Z,2.60
2022-10-04T16:31:19.954Z,2.37
2022-10-04T16:33:59.684Z,2.50
2022-10-04T16:36:31.958Z,2.03
2022-10-04T16:39:19.942Z,2.03
2022-10-04T16:41:55.645Z,2.23
2022-10-04T16:44:34.930Z,2.43
2022-10-04T16:47:14.772Z,2.77
2022-10-04T16:49:50.110Z,2.70
2022-10-04T16:52:37.635Z,2.33
2022-10-04T16:55:10.681Z,2.23
2022-10-04T16:57:39.075Z,2.53
2022-10-04T17:00:25.161Z,2.10
2022-10-04T17:02:55.358Z,2.00
2022-10-04T17:05:32.941Z,2.00
2022-10-04T17:08:16.450Z,1.73
2022-10-04T17:10:49.929Z,2.47
2022-10-04T17:13:31.108Z,1.63
2022-10-04T17:16:18.023Z,2.30
2022-10-04T17:19:04.229Z,2.20
2022-10-04T17:21:37.856Z,2.40
2022-10-04T17:24:15.139Z,1.93
2022-10-04T17:27:05.620Z,1.67
2022-10-04T17:29:36.952Z,2.13
2022-10-04T17:32:08.253Z,1.70
2022-10-04T17:34:41.879Z,1.57
2022-10-04T17:37:33.019Z,1.70
2022-10-04T17:40:18.736Z,1.70
2022-10-04T17:43:06.995Z,1.63
2022-10-04T17:45:37.099Z,1.43
2022-10-04T17:48:44.989Z,1.60
2022-10-04T17:51:46.405Z,1.50
2022-10-04T17:54:43.886Z,1.40
2022-10-04T17:57:14.734Z,1.50
2022-10-04T17:59:44.436Z,1.53
2022-10-04T18:02:17.318Z,1.30
2022-10-04T18:05:08.378Z,1.43
2022-10-04T18:07:39.849Z,1.37
2022-10-04T18:10:27.369Z,1.20
2022-10-04T18:13:12.139Z,1.60
2022-10-04T18:15:43.537Z,1.60
2022-10-04T18:18:10.825Z,1.30
2022-10-04T18:20:40.269Z,1.23
2022-10-04T18:23:25.319Z,1.23
2022-10-04T18:25:55.218Z,1.30
2022-10-04T18:28:22.934Z,1.20
2022-10-04T18:30:51.247Z,1.10
2022-10-04T18:33:25.902Z,1.13
2022-10-04T18:36:00.901Z,1.10
2022-10-04T18:38:35.414Z,1.20
2022-10-04T18:41:05.289Z,1.13
2022-10-04T18:43:35.224Z,1.10
2022-10-04T18:46:04.473Z,1.27
2022-10-04T18:48:39.552Z,1.13
2022-10-04T18:51:25.717Z,1.13
2022-10-04T18:54:00.028Z,1.20
2022-10-04T18:56:33.750Z,1.20
2022-10-04T18:59:32.257Z,1.30
2022-10-04T19:02:06.630Z,1.40
2022-10-04T19:04:34.208Z,1.50
2022-10-04T19:07:10.226Z,1.80
2022-10-04T19:09:46.791Z,1.17
2022-10-04T19:12:19.193Z,1.23
2022-10-04T19:15:03.363Z,1.30
2022-10-04T19:17:34.722Z,1.37
2022-10-04T19:20:14.031Z,1.27
2022-10-04T19:22:48.279Z,1.20
2022-10-04T19:25:30.229Z,1.10
2022-10-04T19:28:06.931Z,1.00
2022-10-04T19:30:48.178Z,1.00
2022-10-04T19:33:20.362Z,1.20
2022-10-04T19:36:07.117Z,1.10
2022-10-04T19:38:34.398Z,1.00
2022-10-04T19:41:04.790Z,1.10
2022-10-04T19:43:42.253Z,1.30
2022-10-04T19:46:13.917Z,1.20
2022-10-04T19:48:52.435Z,1.27
2022-10-04T19:51:25.786Z,1.00
2022-10-04T19:53:57.816Z,1.20
2022-10-04T19:56:29.026Z,1.10
2022-10-04T19:59:02.006Z,1.00
2022-10-04T20:01:29.809Z,0.97
2022-10-04T20:04:16.107Z,1.07
2022-10-04T20:06:50.145Z,1.33
2022-10-04T20:09:23.769Z,1.30
2022-10-04T20:11:52.194Z,1.20
2022-10-04T20:14:21.465Z,1.30
2022-10-04T20:16:49.477Z,1.27
2022-10-04T20:19:19.948Z,1.00
2022-10-04T20:21:47.566Z,0.90
2022-10-04T20:24:18.692Z,1.00
2022-10-04T20:26:54.100Z,1.07
2022-10-04T20:29:37.254Z,1.20
2022-10-04T20:32:08.958Z,1.00
2022-10-04T20:34:39.080Z,1.00
2022-10-04T20:37:08.246Z,1.17
2022-10-04T20:39:56.841Z,1.10
2022-10-04T20:42:29.954Z,1.10
2022-10-04T20:44:57.317Z,1.10
2022-10-04T20:47:43.361Z,1.30
2022-10-04T20:50:11.879Z,1.00
2022-10-04T20:52:43.895Z,1.00
2022-10-04T20:55:27.402Z,1.13
2022-10-04T20:57:55.659Z,1.10
2022-10-04T21:00:25.605Z,1.07
2022-10-04T21:03:08.986Z,1.10
2022-10-04T21:05:36.494Z,1.20
2022-10-04T21:08:22.729Z,0.90
2022-10-04T21:11:06.275Z,1.20
2022-10-04T21:13:43.675Z,1.00
2022-10-04T21:16:11.074Z,0.90
2022-10-04T21:18:38.395Z,0.87
2022-10-04T21:21:05.787Z,0.90
2022-10-04T21:23:34.207Z,1.00
2022-10-04T21:26:20.969Z,0.80
2022-10-04T21:28:49.012Z,1.00
2022-10-04T21:31:16.409Z,1.20
2022-10-04T21:33:43.827Z,1.20
2022-10-04T21:36:11.109Z,1.07
2022-10-04T21:38:38.473Z,0.90
2022-10-04T21:41:05.844Z,0.97
2022-10-04T21:43:33.398Z,0.83
2022-10-04T21:46:00.807Z,0.77
2022-10-04T21:48:28.271Z,1.00
2022-10-04T21:50:55.802Z,0.80
2022-10-04T21:53:23.319Z,0.80
2022-10-04T21:55:50.652Z,0.87
2022-10-04T21:58:18.072Z,1.10
2022-10-04T22:00:46.077Z,1.30
2022-10-04T22:03:13.375Z,1.07
2022-10-04T22:05:40.651Z,1.00
2022-10-04T22:08:07.986Z,0.83
2022-10-04T22:10:35.371Z,1.20
2022-10-04T22:13:02.704Z,1.10
2022-10-04T22:15:30.106Z,1.17
2022-10-04T22:17:57.445Z,1.10
2022-10-04T22:20:25.280Z,1.20
2022-10-04T22:22:53.251Z,1.03
2022-10-04T22:25:21.889Z,1.20
2022-10-04T22:27:49.237Z,1.23
2022-10-04T22:30:22.672Z,1.00
2022-10-04T22:32:50.362Z,1.03
2022-10-04T22:35:19.220Z,1.00
2022-10-04T22:37:47.427Z,1.00
2022-10-04T22:40:22.367Z,1.00
2022-10-04T22:42:53.367Z,1.10
2022-10-04T22:45:23.224Z,1.03
2022-10-04T22:47:51.699Z,1.10
2022-10-04T22:50:24.981Z,1.13
2022-10-04T22:52:52.425Z,1.00
2022-10-04T22:55:19.851Z,1.20
2022-10-04T22:57:47.142Z,1.10
2022-10-04T23:00:14.527Z,1.17
2022-10-04T23:02:41.983Z,1.07
2022-10-04T23:05:17.100Z,1.00
2022-10-04T23:07:44.968Z,1.03
2022-10-04T23:10:13.101Z,1.13
2022-10-04T23:12:40.910Z,0.97
2022-10-04T23:15:08.501Z,1.13
2022-10-04T23:17:37.230Z,1.10
2022-10-04T23:20:12.084Z,0.90
2022-10-04T23:22:39.449Z,1.20
2022-10-04T23:25:13.994Z,1.03
2022-10-04T23:27:41.491Z,1.00
2022-10-04T23:30:19.401Z,1.00
2022-10-04T23:32:47.727Z,0.90
2022-10-04T23:35:17.117Z,1.07
2022-10-04T23:37:44.449Z,0.83
2022-10-04T23:40:13.619Z,1.07
2022-10-04T23:42:40.951Z,1.10
2022-10-04T23:45:17.321Z,0.93
2022-10-04T23:47:45.102Z,0.90
2022-10-04T23:50:20.903Z,1.00
2022-10-04T23:52:48.442Z,0.80
2022-10-04T23:55:20.734Z,0.90
2022-10-04T23:57:48.108Z,0.90
